createdAt,value
2019-02-22T00:00:13.222Z,138.53
2019-02-22T00:01:38.794Z,123.73
2019-02-22T00:02:47.005Z,136.47
2019-02-22T00:03:55.091Z,130.17
2019-02-22T00:05:03.420Z,249.80
2019-02-22T00:06:12.012Z,228.27
2019-02-22T00:07:20.594Z,183.47
2019-02-22T00:08:28.560Z,209.00
2019-02-22T00:09:36.798Z,241.90
2019-02-22T00:10:45.182Z,185.37
2019-02-22T00:11:53.754Z,213.20
2019-02-22T00:13:01.767Z,248.90
2019-02-22T00:14:09.865Z,251.60
2019-02-22T00:15:17.961Z,237.37
2019-02-22T00:16:26.192Z,276.67
2019-02-22T00:17:34.707Z,212.47
2019-02-22T00:18:43.092Z,209.10
2019-02-22T00:19:51.286Z,244.90
2019-02-22T00:20:59.330Z,214.67
2019-02-22T00:22:07.732Z,190.40
2019-02-22T00:23:15.960Z,199.63
2019-02-22T00:24:24.137Z,230.57
2019-02-22T00:25:32.114Z,277.63
2019-02-22T00:26:40.048Z,204.93
2019-02-22T00:27:48.093Z,174.53
2019-02-22T00:28:56.301Z,199.10
2019-02-22T00:30:04.811Z,141.80
2019-02-22T00:31:13.225Z,124.07
2019-02-22T00:32:21.930Z,102.17
2019-02-22T00:33:29.949Z,100.27
2019-02-22T00:34:38.286Z,128.50
2019-02-22T00:35:46.379Z,196.47
2019-02-22T00:36:54.438Z,190.47
2019-02-22T00:38:02.557Z,130.57
2019-02-22T00:39:10.996Z,108.53
2019-02-22T00:40:19.534Z,111.10
2019-02-22T00:41:27.543Z,145.80
2019-02-22T00:42:35.868Z,199.10
2019-02-22T00:43:44.206Z,149.90
2019-02-22T00:44:52.758Z,132.63
2019-02-22T00:46:01.294Z,138.70
2019-02-22T00:47:09.653Z,148.57
2019-02-22T00:48:17.867Z,163.13
2019-02-22T00:49:26.167Z,159.73
2019-02-22T00:50:34.179Z,255.13
2019-02-22T00:51:42.592Z,281.20
2019-02-22T00:52:51.255Z,234.97
2019-02-22T00:53:59.617Z,142.53
2019-02-22T00:55:08.466Z,128.00
2019-02-22T00:56:16.754Z,127.53
2019-02-22T00:57:25.134Z,147.23
2019-02-22T00:58:33.529Z,171.50
2019-02-22T00:59:42.600Z,204.57
2019-02-22T01:00:51.229Z,203.83
2019-02-22T01:02:00.153Z,222.70
2019-02-22T01:03:08.829Z,221.90
2019-02-22T01:04:17.713Z,134.40
2019-02-22T01:05:26.126Z,113.37
2019-02-22T01:06:34.521Z,133.77
2019-02-22T01:07:43.113Z,132.90
2019-02-22T01:08:51.699Z,78.17
2019-02-22T01:10:00.425Z,56.37
2019-02-22T01:11:08.886Z,12.27
2019-02-22T01:12:17.366Z,14.80
2019-02-22T01:13:25.978Z,20.97
2019-02-22T01:14:34.712Z,74.30
2019-02-22T01:15:43.266Z,84.80
2019-02-22T01:16:51.909Z,25.27
2019-02-22T01:18:00.183Z,49.03
2019-02-22T01:19:08.890Z,18.97
2019-02-22T01:20:17.141Z,12.97
2019-02-22T01:21:25.443Z,15.77
2019-02-22T01:22:33.828Z,74.10
2019-02-22T01:23:42.685Z,74.40
2019-02-22T01:24:50.940Z,11.47
2019-02-22T01:25:59.428Z,13.90
2019-02-22T01:27:08.090Z,10.47
2019-02-22T01:28:16.899Z,23.73
2019-02-22T01:29:25.213Z,15.67
2019-02-22T01:30:34.618Z,83.83
2019-02-22T01:31:43.102Z,83.17
2019-02-22T01:32:51.622Z,17.83
2019-02-22T01:34:00.262Z,24.70
2019-02-22T01:35:09.200Z,80.10
2019-02-22T01:36:18.370Z,159.07
2019-02-22T01:37:26.913Z,134.40
2019-02-22T01:38:35.660Z,172.47
2019-02-22T01:39:44.429Z,165.33
2019-02-22T01:40:53.261Z,123.27
2019-02-22T01:42:02.227Z,115.13
2019-02-22T01:43:10.811Z,130.10
2019-02-22T01:44:22.293Z,117.90
2019-02-22T01:45:30.698Z,137.37
2019-02-22T01:46:39.266Z,164.30
2019-02-22T01:47:47.553Z,189.97
2019-02-22T01:48:55.574Z,119.93
2019-02-22T01:50:05.380Z,70.80
2019-02-22T01:51:13.985Z,44.67
2019-02-22T01:52:22.716Z,68.37
2019-02-22T01:53:30.753Z,75.47
2019-02-22T01:54:40.021Z,247.00
2019-02-22T01:55:48.397Z,166.50
2019-02-22T01:56:56.589Z,57.20
2019-02-22T01:58:04.825Z,92.00
2019-02-22T01:59:13.337Z,69.90
2019-02-22T02:00:21.965Z,21.40
2019-02-22T02:01:30.151Z,66.00
2019-02-22T02:02:38.689Z,155.40
2019-02-22T02:03:46.746Z,164.37
2019-02-22T02:04:54.852Z,111.43
2019-02-22T02:06:03.682Z,98.50
2019-02-22T02:07:12.362Z,132.57
2019-02-22T02:08:21.146Z,128.70
2019-02-22T02:09:29.581Z,54.77
2019-02-22T02:10:37.835Z,121.67
2019-02-22T02:11:46.035Z,106.20
2019-02-22T02:12:54.595Z,33.27
2019-02-22T02:14:03.018Z,18.03
2019-02-22T02:15:11.471Z,24.23
2019-02-22T02:16:20.184Z,29.67
2019-02-22T02:17:28.457Z,15.33
2019-02-22T02:18:37.270Z,76.93
2019-02-22T02:19:45.600Z,80.97
2019-02-22T02:20:54.431Z,17.23
2019-02-22T02:22:03.084Z,21.47
2019-02-22T02:23:11.436Z,40.10
2019-02-22T02:24:20.344Z,91.93
2019-02-22T02:25:28.672Z,90.53
2019-02-22T02:26:37.094Z,71.90
2019-02-22T02:27:45.278Z,80.23
2019-02-22T02:28:53.761Z,18.80
2019-02-22T02:30:03.886Z,55.57
2019-02-22T02:31:12.332Z,11.33
2019-02-22T02:32:20.811Z,16.17
2019-02-22T02:33:29.507Z,28.73
2019-02-22T02:34:38.025Z,69.00
2019-02-22T02:35:46.413Z,77.37
2019-02-22T02:36:55.234Z,14.97
2019-02-22T02:38:03.855Z,18.27
2019-02-22T02:39:12.611Z,17.83
2019-02-22T02:40:22.000Z,14.43
2019-02-22T02:41:31.114Z,9.93
2019-02-22T02:42:39.612Z,69.13
2019-02-22T02:43:48.021Z,75.93
2019-02-22T02:44:57.182Z,8.33
2019-02-22T02:46:05.998Z,58.00
2019-02-22T02:47:14.905Z,11.53
2019-02-22T02:48:23.624Z,17.13
2019-02-22T02:49:32.399Z,12.90
2019-02-22T02:50:40.546Z,83.40
2019-02-22T02:51:49.908Z,69.87
2019-02-22T02:52:58.796Z,96.57
2019-02-22T02:54:07.361Z,8.07
2019-02-22T02:55:29.829Z,12.63
2019-02-22T02:56:38.636Z,77.47
2019-02-22T02:57:48.001Z,78.67
2019-02-22T02:58:56.249Z,22.00
2019-02-22T03:00:07.941Z,22.03
2019-02-22T03:01:16.516Z,10.67
2019-02-22T03:02:25.894Z,20.80
2019-02-22T03:03:33.874Z,28.97
2019-02-22T03:04:42.395Z,83.70
2019-02-22T03:05:53.633Z,87.03
2019-02-22T03:07:03.458Z,43.43
2019-02-22T03:08:12.499Z,23.77
2019-02-22T03:09:21.169Z,105.00
2019-02-22T03:10:31.460Z,94.77
2019-02-22T03:11:39.538Z,115.87
2019-02-22T03:12:48.269Z,87.37
2019-02-22T03:13:56.791Z,16.63
2019-02-22T03:15:06.587Z,18.87
2019-02-22T03:16:15.288Z,15.03
2019-02-22T03:17:24.000Z,12.63
2019-02-22T03:18:32.088Z,11.67
2019-02-22T03:19:40.491Z,59.27
2019-02-22T03:20:48.846Z,73.07
2019-02-22T03:21:56.782Z,33.17
2019-02-22T03:23:05.350Z,97.97
2019-02-22T03:24:13.531Z,33.33
2019-02-22T03:25:21.906Z,42.67
2019-02-22T03:26:30.252Z,61.97
2019-02-22T03:27:38.441Z,60.77
2019-02-22T03:28:46.532Z,88.23
2019-02-22T03:29:54.955Z,62.93
2019-02-22T03:31:03.562Z,10.07
2019-02-22T03:32:11.759Z,12.07
2019-02-22T03:33:19.852Z,11.17
2019-02-22T03:34:27.942Z,14.23
2019-02-22T03:35:36.249Z,13.67
2019-02-22T03:36:44.655Z,67.00
2019-02-22T03:37:52.944Z,70.13
2019-02-22T03:39:00.974Z,11.17
2019-02-22T03:40:10.313Z,12.20
2019-02-22T03:41:18.229Z,8.57
2019-02-22T03:42:26.571Z,10.63
2019-02-22T03:43:34.623Z,16.30
2019-02-22T03:44:43.045Z,66.23
2019-02-22T03:45:51.034Z,68.80
2019-02-22T03:46:59.230Z,9.37
2019-02-22T03:48:07.790Z,9.90
2019-02-22T03:49:16.696Z,18.43
2019-02-22T03:50:25.000Z,9.93
2019-02-22T03:51:33.091Z,9.10
2019-02-22T03:52:42.925Z,51.70
2019-02-22T03:53:53.755Z,60.73
2019-02-22T03:55:01.738Z,9.77
2019-02-22T03:56:10.403Z,10.93
2019-02-22T03:57:18.659Z,10.37
2019-02-22T03:58:26.676Z,9.13
2019-02-22T03:59:34.999Z,10.77
2019-02-22T04:00:43.182Z,50.90
2019-02-22T04:01:51.465Z,53.53
2019-02-22T04:02:59.897Z,13.37
2019-02-22T04:04:08.316Z,7.10
2019-02-22T04:05:16.588Z,7.93
2019-02-22T04:06:25.314Z,6.57
2019-02-22T04:07:33.372Z,9.50
2019-02-22T04:08:41.803Z,26.00
2019-02-22T04:09:50.125Z,58.33
2019-02-22T04:10:58.226Z,24.87
2019-02-22T04:12:06.223Z,6.47
2019-02-22T04:13:14.511Z,4.10
2019-02-22T04:14:22.707Z,6.67
2019-02-22T04:15:30.926Z,3.17
2019-02-22T04:16:39.207Z,6.37
2019-02-22T04:17:47.348Z,43.30
2019-02-22T04:18:55.495Z,44.93
2019-02-22T04:20:04.518Z,4.00
2019-02-22T04:21:12.916Z,6.53
2019-02-22T04:22:21.070Z,6.33
2019-02-22T04:23:29.106Z,0.70
2019-02-22T04:24:37.707Z,3.87
2019-02-22T04:25:45.815Z,47.40
2019-02-22T04:26:54.376Z,48.30
2019-02-22T04:28:02.962Z,5.07
2019-02-22T04:29:11.419Z,4.97
2019-02-22T04:30:20.251Z,7.10
2019-02-22T04:31:28.864Z,4.17
2019-02-22T04:32:37.173Z,4.20
2019-02-22T04:33:45.415Z,47.23
2019-02-22T04:34:53.660Z,46.13
2019-02-22T04:36:02.317Z,6.43
2019-02-22T04:37:10.930Z,7.80
2019-02-22T04:38:19.344Z,8.53
2019-02-22T04:39:27.453Z,9.83
2019-02-22T04:40:35.803Z,8.80
2019-02-22T04:41:44.710Z,35.37
2019-02-22T04:42:54.483Z,52.13
2019-02-22T04:44:03.078Z,11.87
2019-02-22T04:45:11.388Z,13.00
2019-02-22T04:46:19.568Z,12.23
2019-02-22T04:47:27.749Z,9.87
2019-02-22T04:48:36.160Z,23.57
2019-02-22T04:49:44.551Z,36.07
2019-02-22T04:50:53.501Z,67.30
2019-02-22T04:52:01.671Z,37.73
2019-02-22T04:53:09.958Z,10.60
2019-02-22T04:54:18.110Z,5.53
2019-02-22T04:55:29.197Z,6.13
2019-02-22T04:56:36.546Z,4.57
2019-02-22T04:57:44.777Z,43.23
2019-02-22T04:58:53.151Z,61.77
2019-02-22T05:00:01.236Z,38.47
2019-02-22T05:01:09.072Z,4.80
2019-02-22T05:02:17.398Z,4.40
2019-02-22T05:03:25.683Z,7.07
2019-02-22T05:04:33.855Z,6.53
2019-02-22T05:05:42.123Z,4.90
2019-02-22T05:06:50.683Z,67.80
2019-02-22T05:07:58.813Z,62.83
2019-02-22T05:09:07.481Z,3.13
2019-02-22T05:10:15.550Z,12.03
2019-02-22T05:11:24.671Z,20.10
2019-02-22T05:12:32.812Z,2.53
2019-02-22T05:13:41.513Z,7.23
2019-02-22T05:14:49.534Z,67.47
2019-02-22T05:15:57.745Z,102.03
2019-02-22T05:17:06.279Z,1.57
2019-02-22T05:18:16.600Z,5.30
2019-02-22T05:19:25.429Z,3.17
2019-02-22T05:20:34.232Z,12.47
2019-02-22T05:21:42.753Z,13.87
2019-02-22T05:23:02.989Z,61.63
2019-02-22T05:24:00.993Z,59.53
2019-02-22T05:25:09.881Z,8.13
2019-02-22T05:26:18.569Z,2.60
2019-02-22T05:27:27.027Z,6.40
2019-02-22T05:28:35.701Z,7.77
2019-02-22T05:29:43.904Z,3.67
2019-02-22T05:30:52.061Z,84.97
2019-02-22T05:32:00.410Z,63.67
2019-02-22T05:33:08.510Z,8.53
2019-02-22T05:34:16.826Z,33.30
2019-02-22T05:35:25.557Z,28.13
2019-02-22T05:36:33.718Z,23.63
2019-02-22T05:37:42.369Z,52.90
2019-02-22T05:38:50.618Z,102.60
2019-02-22T05:40:00.326Z,68.70
2019-02-22T05:41:09.289Z,17.00
2019-02-22T05:42:22.862Z,39.80
2019-02-22T05:43:27.453Z,63.87
2019-02-22T05:44:35.967Z,17.70
2019-02-22T05:45:45.407Z,22.13
2019-02-22T05:47:00.364Z,90.47
2019-02-22T05:48:03.524Z,110.90
2019-02-22T05:49:11.813Z,18.43
2019-02-22T05:50:20.496Z,34.40
2019-02-22T05:51:28.698Z,15.83
2019-02-22T05:52:37.103Z,18.53
2019-02-22T05:53:47.107Z,19.23
2019-02-22T05:54:55.366Z,76.47
2019-02-22T05:56:03.911Z,94.90
2019-02-22T05:57:14.190Z,23.40
2019-02-22T05:58:22.080Z,18.20
2019-02-22T05:59:30.887Z,42.93
2019-02-22T06:00:39.584Z,58.77
2019-02-22T06:01:48.224Z,47.27
2019-02-22T06:02:56.528Z,211.53
2019-02-22T06:04:05.588Z,157.60
2019-02-22T06:05:13.625Z,62.63
2019-02-22T06:06:21.707Z,86.67
2019-02-22T06:07:30.440Z,117.20
2019-02-22T06:08:38.477Z,88.13
2019-02-22T06:09:47.076Z,97.77
2019-02-22T06:10:55.341Z,158.73
2019-02-22T06:12:03.525Z,142.73
2019-02-22T06:13:11.685Z,53.63
2019-02-22T06:14:20.128Z,63.93
2019-02-22T06:15:28.338Z,92.47
2019-02-22T06:16:38.585Z,110.80
2019-02-22T06:17:47.378Z,90.53
2019-02-22T06:18:55.540Z,136.30
2019-02-22T06:20:09.154Z,105.07
2019-02-22T06:21:17.444Z,22.60
2019-02-22T06:22:29.530Z,10.57
2019-02-22T06:23:35.981Z,15.63
2019-02-22T06:24:44.486Z,23.33
2019-02-22T06:25:52.724Z,43.80
2019-02-22T06:27:01.418Z,78.93
2019-02-22T06:28:10.017Z,47.37
2019-02-22T06:29:18.493Z,14.37
2019-02-22T06:30:26.827Z,29.53
2019-02-22T06:31:35.568Z,19.97
2019-02-22T06:32:44.240Z,34.57
2019-02-22T06:33:52.660Z,94.70
2019-02-22T06:35:01.267Z,171.90
2019-02-22T06:36:10.093Z,114.80
2019-02-22T06:37:18.543Z,99.60
2019-02-22T06:38:27.000Z,89.53
2019-02-22T06:39:35.605Z,43.30
2019-02-22T06:40:44.202Z,13.83
2019-02-22T06:41:52.565Z,36.60
2019-02-22T06:43:00.856Z,87.53
2019-02-22T06:44:11.915Z,80.50
2019-02-22T06:45:19.902Z,5.80
2019-02-22T06:46:28.175Z,8.43
2019-02-22T06:47:36.895Z,53.50
2019-02-22T06:48:45.366Z,58.93
2019-02-22T06:49:53.560Z,46.53
2019-02-22T06:51:02.456Z,90.53
2019-02-22T06:52:10.986Z,65.50
2019-02-22T06:53:19.750Z,9.87
2019-02-22T06:54:28.008Z,12.37
2019-02-22T06:55:36.818Z,12.07
2019-02-22T06:56:45.022Z,15.80
2019-02-22T06:57:53.299Z,20.40
2019-02-22T06:59:02.122Z,76.57
2019-02-22T07:00:13.562Z,76.37
2019-02-22T07:01:21.861Z,6.80
2019-02-22T07:02:30.601Z,32.50
2019-02-22T07:03:39.073Z,23.63
2019-02-22T07:04:47.594Z,14.87
2019-02-22T07:05:55.919Z,43.40
2019-02-22T07:07:04.523Z,88.37
2019-02-22T07:08:14.454Z,32.57
2019-02-22T07:09:22.839Z,16.20
2019-02-22T07:10:33.053Z,39.40
2019-02-22T07:11:55.620Z,63.10
2019-02-22T07:13:05.252Z,105.07
2019-02-22T07:14:13.480Z,68.33
2019-02-22T07:15:22.031Z,22.83
2019-02-22T07:16:30.244Z,108.37
2019-02-22T07:17:38.766Z,94.97
2019-02-22T07:18:47.087Z,94.47
2019-02-22T07:19:55.395Z,89.67
2019-02-22T07:21:03.965Z,156.03
2019-02-22T07:22:13.475Z,147.40
2019-02-22T07:23:22.139Z,111.63
2019-02-22T07:24:30.687Z,114.00
2019-02-22T07:25:38.981Z,118.90
2019-02-22T07:26:47.038Z,70.83
2019-02-22T07:27:55.735Z,82.17
2019-02-22T07:29:04.166Z,170.03
2019-02-22T07:30:13.520Z,157.93
2019-02-22T07:31:21.645Z,109.37
2019-02-22T07:32:30.418Z,99.73
2019-02-22T07:33:38.549Z,86.97
2019-02-22T07:34:47.078Z,78.73
2019-02-22T07:35:56.197Z,73.23
2019-02-22T07:37:04.825Z,140.47
2019-02-22T07:38:12.981Z,111.77
2019-02-22T07:39:27.740Z,70.03
2019-02-22T07:40:31.333Z,32.87
2019-02-22T07:41:39.519Z,85.43
2019-02-22T07:42:48.104Z,136.53
2019-02-22T07:43:56.538Z,122.37
2019-02-22T07:45:07.627Z,133.53
2019-02-22T07:46:16.406Z,71.00
2019-02-22T07:47:24.702Z,36.37
2019-02-22T07:48:33.644Z,98.10
2019-02-22T07:49:42.119Z,107.30
2019-02-22T07:50:57.926Z,95.20
2019-02-22T07:52:00.516Z,105.93
2019-02-22T07:53:09.212Z,127.20
2019-02-22T07:54:17.511Z,90.27
2019-02-22T07:55:25.967Z,110.23
2019-02-22T07:56:34.566Z,108.87
2019-02-22T07:57:43.296Z,137.77
2019-02-22T07:58:52.102Z,116.93
2019-02-22T08:00:00.869Z,116.03
2019-02-22T08:01:10.650Z,152.40
2019-02-22T08:02:19.595Z,64.80
2019-02-22T08:03:28.328Z,101.47
2019-02-22T08:04:36.776Z,12.50
2019-02-22T08:05:45.048Z,12.07
2019-02-22T08:06:53.740Z,15.60
2019-02-22T08:08:02.292Z,54.53
2019-02-22T08:09:11.833Z,72.80
2019-02-22T08:10:20.440Z,23.73
2019-02-22T08:11:29.071Z,111.57
2019-02-22T08:12:37.833Z,61.20
2019-02-22T08:13:46.355Z,71.00
2019-02-22T08:14:55.175Z,59.37
2019-02-22T08:16:03.758Z,83.43
2019-02-22T08:17:14.620Z,109.70
2019-02-22T08:18:23.854Z,11.50
2019-02-22T08:19:32.237Z,12.50
2019-02-22T08:20:41.790Z,10.53
2019-02-22T08:21:50.289Z,78.57
2019-02-22T08:22:58.326Z,96.20
2019-02-22T08:24:06.485Z,150.03
2019-02-22T08:25:14.718Z,163.80
2019-02-22T08:26:22.993Z,134.87
2019-02-22T08:27:31.486Z,106.77
2019-02-22T08:28:39.669Z,96.93
2019-02-22T08:29:47.866Z,104.27
2019-02-22T08:30:56.018Z,110.40
2019-02-22T08:32:04.069Z,130.03
2019-02-22T08:33:12.065Z,141.37
2019-02-22T08:34:21.065Z,78.23
2019-02-22T08:35:29.388Z,53.43
2019-02-22T08:36:38.450Z,59.70
2019-02-22T08:37:47.125Z,83.93
2019-02-22T08:38:57.405Z,92.73
2019-02-22T08:40:08.826Z,109.57
2019-02-22T08:41:17.178Z,99.07
2019-02-22T08:42:25.688Z,64.23
2019-02-22T08:43:34.557Z,45.70
2019-02-22T08:44:42.907Z,23.30
2019-02-22T08:45:51.717Z,42.10
2019-02-22T08:47:00.221Z,50.83
2019-02-22T08:48:08.427Z,77.30
2019-02-22T08:49:17.235Z,100.93
2019-02-22T08:50:25.539Z,27.50
2019-02-22T08:51:34.436Z,20.30
2019-02-22T08:52:43.049Z,11.83
2019-02-22T08:53:51.420Z,17.00
2019-02-22T08:55:00.249Z,14.70
2019-02-22T08:56:08.578Z,78.40
2019-02-22T08:57:16.660Z,77.90
2019-02-22T08:58:24.988Z,19.23
2019-02-22T08:59:33.693Z,21.10
2019-02-22T09:00:42.660Z,39.43
2019-02-22T09:01:50.911Z,42.47
2019-02-22T09:02:59.711Z,37.00
2019-02-22T09:04:07.940Z,79.47
2019-02-22T09:05:16.410Z,89.30
2019-02-22T09:06:24.667Z,15.27
2019-02-22T09:07:33.088Z,62.93
2019-02-22T09:08:41.790Z,23.80
2019-02-22T09:09:50.153Z,21.30
2019-02-22T09:11:00.781Z,22.20
2019-02-22T09:12:08.080Z,69.70
2019-02-22T09:13:16.573Z,103.40
2019-02-22T09:14:24.735Z,44.40
2019-02-22T09:15:34.371Z,10.80
2019-02-22T09:16:42.720Z,9.73
2019-02-22T09:17:50.728Z,11.73
2019-02-22T09:18:59.226Z,12.43
2019-02-22T09:20:11.158Z,60.50
2019-02-22T09:21:19.495Z,87.63
2019-02-22T09:22:28.138Z,27.53
2019-02-22T09:23:36.529Z,33.30
2019-02-22T09:24:44.987Z,62.13
2019-02-22T09:25:53.948Z,24.73
2019-02-22T09:27:02.623Z,25.37
2019-02-22T09:28:10.786Z,107.30
2019-02-22T09:29:19.183Z,143.17
2019-02-22T09:30:27.528Z,105.60
2019-02-22T09:31:35.781Z,124.57
2019-02-22T09:32:44.407Z,127.77
2019-02-22T09:33:52.869Z,166.93
2019-02-22T09:35:01.722Z,80.70
2019-02-22T09:36:10.538Z,166.43
2019-02-22T09:37:19.025Z,148.20
2019-02-22T09:38:27.329Z,97.90
2019-02-22T09:39:36.281Z,72.50
2019-02-22T09:40:44.793Z,41.03
2019-02-22T09:41:53.160Z,21.57
2019-02-22T09:43:02.808Z,11.60
2019-02-22T09:44:11.821Z,70.60
2019-02-22T09:45:20.002Z,109.90
2019-02-22T09:46:28.376Z,40.67
2019-02-22T09:47:37.008Z,113.13
2019-02-22T09:48:45.419Z,100.90
2019-02-22T09:49:54.023Z,111.27
2019-02-22T09:51:02.271Z,81.33
2019-02-22T09:52:11.076Z,146.40
2019-02-22T09:53:19.286Z,113.57
2019-02-22T09:54:27.621Z,85.63
2019-02-22T09:55:36.448Z,63.50
2019-02-22T09:56:44.592Z,28.70
2019-02-22T09:57:53.049Z,32.70
2019-02-22T09:59:01.409Z,19.17
2019-02-22T10:00:13.813Z,69.77
2019-02-22T10:01:22.722Z,85.10
2019-02-22T10:02:30.787Z,25.53
2019-02-22T10:03:39.578Z,45.50
2019-02-22T10:04:54.905Z,42.13
2019-02-22T10:05:58.945Z,26.67
2019-02-22T10:07:07.468Z,26.83
2019-02-22T10:08:16.320Z,71.30
2019-02-22T10:09:24.687Z,79.47
2019-02-22T10:10:33.178Z,31.83
2019-02-22T10:11:41.535Z,30.53
2019-02-22T10:12:49.768Z,56.70
2019-02-22T10:14:06.240Z,64.10
2019-02-22T10:15:10.479Z,20.13
2019-02-22T10:16:19.401Z,87.30
2019-02-22T10:17:27.926Z,49.17
2019-02-22T10:18:36.607Z,16.17
2019-02-22T10:19:45.109Z,22.13
2019-02-22T10:20:53.685Z,20.73
2019-02-22T10:22:01.882Z,11.40
2019-02-22T10:23:10.552Z,28.20
2019-02-22T10:24:19.568Z,78.27
2019-02-22T10:25:27.690Z,46.30
2019-02-22T10:26:36.018Z,8.87
2019-02-22T10:27:44.683Z,30.17
2019-02-22T10:28:53.262Z,11.10
2019-02-22T10:30:02.156Z,9.70
2019-02-22T10:31:11.121Z,63.27
2019-02-22T10:32:19.936Z,117.03
2019-02-22T10:33:36.643Z,41.33
2019-02-22T10:34:40.395Z,30.50
2019-02-22T10:35:48.923Z,38.33
2019-02-22T10:36:57.432Z,20.43
2019-02-22T10:38:06.004Z,53.70
2019-02-22T10:39:14.532Z,72.33
2019-02-22T10:40:23.272Z,149.63
2019-02-22T10:41:31.978Z,54.37
2019-02-22T10:42:41.094Z,21.80
2019-02-22T10:43:49.276Z,46.97
2019-02-22T10:44:57.777Z,86.93
2019-02-22T10:46:06.409Z,65.60
2019-02-22T10:47:14.867Z,118.90
2019-02-22T10:48:23.121Z,129.07
2019-02-22T10:49:31.324Z,69.50
2019-02-22T10:50:40.362Z,23.83
2019-02-22T10:51:49.160Z,13.07
2019-02-22T10:53:02.266Z,19.47
2019-02-22T10:54:08.058Z,21.57
2019-02-22T10:55:16.302Z,79.70
2019-02-22T10:56:24.720Z,76.73
2019-02-22T10:57:33.801Z,29.20
2019-02-22T10:58:42.972Z,42.70
2019-02-22T10:59:51.615Z,13.43
2019-02-22T11:01:00.662Z,13.87
2019-02-22T11:02:09.600Z,16.53
2019-02-22T11:03:18.091Z,83.60
2019-02-22T11:04:26.720Z,93.00
2019-02-22T11:05:34.997Z,16.90
2019-02-22T11:06:44.215Z,12.97
2019-02-22T11:07:52.997Z,13.40
2019-02-22T11:09:01.642Z,16.47
2019-02-22T11:10:13.247Z,14.00
2019-02-22T11:11:21.650Z,84.57
2019-02-22T11:12:30.453Z,89.80
2019-02-22T11:13:39.058Z,16.73
2019-02-22T11:14:47.604Z,20.37
2019-02-22T11:15:56.246Z,20.47
2019-02-22T11:17:05.620Z,19.07
2019-02-22T11:18:14.364Z,47.87
2019-02-22T11:19:22.354Z,81.37
2019-02-22T11:20:31.013Z,87.00
2019-02-22T11:21:40.191Z,16.07
2019-02-22T11:22:49.255Z,32.47
2019-02-22T11:23:57.402Z,19.33
2019-02-22T11:25:08.485Z,20.13
2019-02-22T11:26:17.082Z,60.67
2019-02-22T11:27:25.999Z,85.80
2019-02-22T11:28:34.759Z,26.50
2019-02-22T11:29:43.771Z,15.23
2019-02-22T11:30:52.590Z,15.23
2019-02-22T11:32:00.992Z,19.20
2019-02-22T11:33:11.192Z,80.43
2019-02-22T11:34:19.842Z,89.20
2019-02-22T11:35:28.529Z,83.03
2019-02-22T11:36:37.071Z,43.47
2019-02-22T11:37:45.834Z,20.37
2019-02-22T11:38:54.173Z,13.20
2019-02-22T11:40:02.475Z,12.40
2019-02-22T11:41:10.900Z,9.83
2019-02-22T11:42:19.283Z,73.67
2019-02-22T11:43:27.983Z,79.57
2019-02-22T11:44:40.239Z,7.83
2019-02-22T11:45:46.578Z,11.97
2019-02-22T11:46:54.754Z,11.93
2019-02-22T11:48:09.112Z,16.47
2019-02-22T11:49:12.900Z,8.43
2019-02-22T11:50:21.272Z,73.47
2019-02-22T11:51:29.879Z,68.20
2019-02-22T11:52:38.664Z,10.83
2019-02-22T11:53:47.280Z,15.30
2019-02-22T11:54:55.696Z,17.30
2019-02-22T11:56:04.125Z,7.13
2019-02-22T11:57:12.732Z,9.63
2019-02-22T11:58:21.837Z,93.63
2019-02-22T11:59:30.057Z,86.40
2019-02-22T12:00:38.459Z,27.30
2019-02-22T12:01:47.176Z,11.60
2019-02-22T12:02:55.679Z,12.70
2019-02-22T12:04:04.583Z,11.33
2019-02-22T12:05:13.202Z,8.87
2019-02-22T12:06:21.627Z,61.43
2019-02-22T12:07:29.968Z,74.80
2019-02-22T12:08:38.788Z,12.73
2019-02-22T12:09:47.046Z,8.50
2019-02-22T12:10:55.186Z,7.83
2019-02-22T12:12:03.615Z,8.67
2019-02-22T12:13:12.485Z,9.03
2019-02-22T12:14:21.365Z,71.47
2019-02-22T12:15:31.539Z,74.23
2019-02-22T12:16:39.603Z,6.60
2019-02-22T12:17:48.374Z,15.83
2019-02-22T12:18:56.617Z,9.03
2019-02-22T12:20:06.552Z,16.27
2019-02-22T12:21:15.269Z,12.77
2019-02-22T12:22:24.138Z,71.50
2019-02-22T12:23:32.404Z,73.93
2019-02-22T12:24:40.576Z,9.17
2019-02-22T12:25:49.296Z,8.87
2019-02-22T12:26:57.678Z,8.10
2019-02-22T12:28:05.996Z,9.30
2019-02-22T12:29:14.317Z,7.97
2019-02-22T12:30:22.541Z,54.83
2019-02-22T12:31:30.515Z,75.03
2019-02-22T12:32:39.535Z,23.20
2019-02-22T12:33:48.179Z,13.73
2019-02-22T12:34:56.515Z,29.07
2019-02-22T12:36:05.037Z,10.57
2019-02-22T12:37:13.285Z,9.10
2019-02-22T12:38:21.627Z,36.20
2019-02-22T12:39:30.140Z,66.87
2019-02-22T12:40:38.571Z,43.20
2019-02-22T12:41:47.066Z,9.70
2019-02-22T12:42:55.840Z,13.60
2019-02-22T12:44:04.004Z,9.77
2019-02-22T12:45:15.576Z,21.43
2019-02-22T12:46:24.165Z,59.53
2019-02-22T12:47:32.550Z,76.77
2019-02-22T12:48:40.905Z,13.37
2019-02-22T12:49:49.373Z,7.10
2019-02-22T12:50:57.749Z,7.87
2019-02-22T12:52:06.068Z,8.63
2019-02-22T12:53:14.503Z,8.40
2019-02-22T12:54:23.844Z,56.57
2019-02-22T12:55:32.130Z,73.73
2019-02-22T12:56:57.875Z,51.73
2019-02-22T12:57:50.811Z,12.67
2019-02-22T12:58:59.167Z,16.93
2019-02-22T13:00:14.243Z,15.40
2019-02-22T13:01:24.548Z,37.57
2019-02-22T13:02:32.383Z,68.83
2019-02-22T13:03:41.040Z,26.20
2019-02-22T13:04:49.064Z,16.63
2019-02-22T13:05:58.391Z,21.30
2019-02-22T13:07:07.373Z,14.17
2019-02-22T13:08:15.884Z,15.77
2019-02-22T13:09:35.792Z,55.27
2019-02-22T13:10:34.385Z,74.43
2019-02-22T13:11:42.526Z,17.40
2019-02-22T13:12:50.959Z,11.47
2019-02-22T13:14:00.005Z,10.20
2019-02-22T13:15:14.412Z,17.73
2019-02-22T13:16:22.225Z,28.73
2019-02-22T13:17:31.297Z,70.33
2019-02-22T13:18:39.871Z,51.77
2019-02-22T13:19:48.369Z,16.80
2019-02-22T13:20:56.998Z,14.60
2019-02-22T13:22:05.668Z,6.60
2019-02-22T13:23:13.677Z,9.70
2019-02-22T13:24:21.773Z,17.37
2019-02-22T13:25:30.046Z,71.63
2019-02-22T13:26:39.116Z,85.63
2019-02-22T13:27:48.081Z,17.23
2019-02-22T13:28:56.207Z,15.43
2019-02-22T13:30:06.224Z,13.87
2019-02-22T13:31:14.560Z,21.17
2019-02-22T13:32:22.953Z,25.10
2019-02-22T13:33:31.141Z,68.10
2019-02-22T13:34:41.792Z,58.90
2019-02-22T13:35:49.178Z,8.40
2019-02-22T13:36:57.961Z,15.27
2019-02-22T13:38:06.483Z,8.70
2019-02-22T13:39:14.974Z,8.30
2019-02-22T13:40:23.305Z,17.17
2019-02-22T13:41:31.795Z,74.43
2019-02-22T13:42:40.105Z,65.57
2019-02-22T13:43:48.358Z,10.90
2019-02-22T13:44:56.721Z,11.07
2019-02-22T13:46:05.149Z,10.03
2019-02-22T13:47:13.127Z,12.80
2019-02-22T13:48:21.897Z,10.70
2019-02-22T13:49:30.126Z,62.53
2019-02-22T13:50:39.235Z,64.97
2019-02-22T13:51:47.654Z,8.57
2019-02-22T13:52:56.366Z,7.63
2019-02-22T13:54:04.673Z,7.27
2019-02-22T13:55:13.894Z,12.30
2019-02-22T13:56:29.666Z,8.47
2019-02-22T13:57:32.599Z,65.47
2019-02-22T13:58:41.095Z,83.20
2019-02-22T13:59:49.379Z,10.13
2019-02-22T14:00:57.967Z,31.77
2019-02-22T14:02:06.187Z,9.47
2019-02-22T14:03:14.464Z,8.80
2019-02-22T14:04:22.896Z,11.33
2019-02-22T14:05:31.160Z,76.07
2019-02-22T14:06:39.990Z,72.93
2019-02-22T14:07:58.120Z,9.47
2019-02-22T14:09:07.372Z,22.60
2019-02-22T14:10:15.581Z,28.83
2019-02-22T14:11:23.639Z,11.50
2019-02-22T14:12:31.941Z,73.00
2019-02-22T14:13:40.451Z,78.60
2019-02-22T14:14:48.851Z,10.00
2019-02-22T14:15:57.201Z,7.83
2019-02-22T14:17:05.460Z,9.17
2019-02-22T14:18:14.321Z,27.73
2019-02-22T14:19:22.628Z,8.33
2019-02-22T14:20:30.765Z,61.27
2019-02-22T14:21:38.925Z,62.17
2019-02-22T14:22:48.190Z,12.43
2019-02-22T14:23:56.421Z,25.70
2019-02-22T14:25:05.241Z,14.20
2019-02-22T14:26:13.262Z,11.57
2019-02-22T14:27:21.717Z,26.63
2019-02-22T14:28:30.129Z,61.73
2019-02-22T14:29:38.622Z,66.80
2019-02-22T14:30:46.675Z,26.27
2019-02-22T14:31:55.190Z,10.80
2019-02-22T14:33:03.528Z,4.60
2019-02-22T14:34:12.165Z,12.00
2019-02-22T14:35:20.446Z,11.50
2019-02-22T14:36:29.204Z,28.60
2019-02-22T14:37:37.798Z,62.97
2019-02-22T14:38:46.826Z,36.60
2019-02-22T14:40:03.131Z,14.43
2019-02-22T14:41:05.450Z,14.47
2019-02-22T14:42:13.786Z,13.37
2019-02-22T14:43:22.088Z,11.37